Time;durP1;ratioP1;P1;durP2;ratioP2;P2;SDS_P1;SDS_P2;PMS_P1;PMS_P2;Temp;Humidity;BMP_temperature;BMP_pressure;BME280_temperature;BME280_humidity;BME280_pressure;Samples;Min_cycle;Max_cycle;Signal;HPM_P1;HPM_P2
2022/12/07 00:01:26;;;;;;;15.35;6.80;;;;;;;9.11;66.68;97914.75;5375528;26;20047;-82
2022/12/07 00:03:57;;;;;;;16.08;7.68;;;;;;;9.07;66.75;97908.03;5394386;26;20057;-82
2022/12/07 00:06:23;;;;;;;14.98;6.90;;;;;;;8.82;68.49;97904.72;5395263;26;20334;-82
2022/12/07 00:08:50;;;;;;;;;;;;;;;8.84;68.68;97908.09;5395451;26;20413;-81
2022/12/07 00:11:20;;;;;;;14.75;6.53;;;;;;;8.34;70.22;97906.47;5394964;26;19935;-82
2022/12/07 00:13:51;;;;;;;18.20;7.00;;;;;;;8.58;69.66;97901.34;5395481;26;20060;-82
2022/12/07 00:16:19;;;;;;;15.60;7.30;;;;;;;8.36;69.63;97896.97;5395604;26;20052;-82
2022/12/07 00:18:46;;;;;;;14.65;6.50;;;;;;;8.90;68.39;97893.25;5395189;26;20067;-81
2022/12/07 00:21:19;;;;;;;15.60;6.85;;;;;;;9.51;65.50;97902.84;5395625;26;20020;-81
2022/12/07 00:23:47;;;;;;;15.88;6.97;;;;;;;9.41;65.92;97901.56;5375378;26;20067;-81
2022/12/07 00:26:19;;;;;;;14.13;6.10;;;;;;;9.18;66.33;97900.75;5375442;26;20085;-82
2022/12/07 00:28:50;;;;;;;13.93;7.10;;;;;;;9.28;66.72;97896.06;5395487;26;20418;-81
2022/12/07 00:31:18;;;;;;;14.13;6.62;;;;;;;9.16;67.34;97896.56;5395055;26;20096;-81
2022/12/07 00:33:46;;;;;;;15.68;6.70;;;;;;;8.79;69.54;97894.56;5395253;26;20063;-81
2022/12/07 00:36:15;;;;;;;14.85;6.80;;;;;;;8.67;69.89;97895.84;5375197;26;20059;-81
2022/12/07 00:38:46;;;;;;;14.00;6.35;;;;;;;8.56;71.70;97896.25;5395154;26;20036;-81
2022/12/07 00:41:15;;;;;;;15.40;6.60;;;;;;;8.90;70.40;97900.97;5376213;26;20047;-81
2022/12/07 00:43:43;;;;;;;14.87;6.82;;;;;;;8.94;69.97;97894.81;5395635;26;20034;-82
2022/12/07 00:46:11;;;;;;;15.27;7.20;;;;;;;9.28;68.84;97901.22;5395239;26;20056;-81
2022/12/07 00:48:38;;;;;;;14.45;6.50;;;;;;;9.42;67.93;97895.50;5395843;26;20055;-82
2022/12/07 00:51:06;;;;;;;15.43;6.87;;;;;;;9.20;68.10;97898.94;5395528;26;20048;-82
2022/12/07 00:53:36;;;;;;;15.38;6.53;;;;;;;9.42;67.40;97888.63;5395350;26;20070;-82
2022/12/07 00:56:09;;;;;;;13.35;6.28;;;;;;;8.98;69.64;97886.06;5396454;26;20076;-82
2022/12/07 00:58:36;;;;;;;15.90;7.20;;;;;;;8.96;70.41;97885.31;5395766;26;20020;-81
2022/12/07 01:01:03;;;;;;;;;;;;;;;9.03;70.06;97888.44;5396043;26;20058;-82
2022/12/07 01:03:30;;;;;;;14.75;6.50;;;;;;;9.37;67.99;97876.84;5396251;26;19967;-82
2022/12/07 01:05:57;;;;;;;13.57;6.10;;;;;;;9.03;69.49;97880.72;5395668;26;20060;-81
2022/12/07 01:08:26;;;;;;;15.32;6.70;;;;;;;8.94;69.63;97879.38;5376241;26;20060;-81
2022/12/07 01:11:07;;;;;;;15.07;6.65;;;;;;;8.88;71.15;97876.19;5375417;26;20020;-81
2022/12/07 01:13:35;;;;;;;14.63;6.95;;;;;;;9.83;66.12;97870.59;5395652;26;20115;-82
2022/12/07 01:16:04;;;;;;;14.75;6.47;;;;;;;9.73;66.78;97871.91;5375465;26;20074;-82
2022/12/07 01:18:33;;;;;;;14.85;6.68;;;;;;;9.47;66.48;97876.41;5395425;26;20062;-82
2022/12/07 01:21:13;;;;;;;14.48;6.82;;;;;;;9.78;66.90;97867.37;5376079;26;20054;-82
2022/12/07 01:23:40;;;;;;;17.60;7.05;;;;;;;9.69;66.77;97866.03;5376390;26;20161;-82
2022/12/07 01:26:11;;;;;;;15.95;7.05;;;;;;;10.24;64.67;97868.03;5395907;26;20390;-82
2022/12/07 01:28:38;;;;;;;18.23;7.22;;;;;;;9.69;65.02;97873.78;5395567;26;20057;-82
2022/12/07 01:31:16;;;;;;;14.85;6.75;;;;;;;10.18;63.35;97863.91;5395349;26;20035;-82
2022/12/07 01:33:46;;;;;;;13.90;6.50;;;;;;;10.17;62.57;97866.56;5395276;26;20068;-81
2022/12/07 01:36:19;;;;;;;16.65;6.93;;;;;;;10.31;61.77;97862.50;5395775;26;20070;-82
2022/12/07 01:38:51;;;;;;;13.68;6.35;;;;;;;9.99;62.97;97857.88;5395740;26;20048;-82
2022/12/07 01:41:19;;;;;;;14.32;6.10;;;;;;;9.79;63.85;97856.19;5395208;26;20398;-81
2022/12/07 01:44:22;;;;;;;16.52;7.43;;;;;;;9.81;63.30;97854.38;5395931;26;20119;-81
2022/12/07 01:46:55;;;;;;;14.38;6.30;;;;;;;9.22;66.29;97863.66;5396161;26;20059;-81
2022/12/07 01:49:36;;;;;;;13.98;6.47;;;;;;;9.08;66.70;97857.41;5376067;26;20051;-81
2022/12/07 01:52:23;;;;;;;14.23;6.22;;;;;;;8.98;66.81;97855.19;5376014;26;20044;-82
2022/12/07 01:54:54;;;;;;;14.18;6.47;;;;;;;8.50;69.39;97849.34;5376172;26;20059;-81
2022/12/07 01:57:21;;;;;;;15.35;6.40;;;;;;;8.53;69.70;97850.09;5396276;26;20031;-81
2022/12/07 01:59:51;;;;;;;16.48;6.78;;;;;;;8.21;71.49;97845.28;5375345;26;20502;-81
2022/12/07 02:02:20;;;;;;;16.05;6.85;;;;;;;8.47;70.49;97855.44;5395748;26;20048;-81
2022/12/07 02:04:47;;;;;;;14.15;6.35;;;;;;;7.66;75.52;97853.19;5376125;26;20060;-81
2022/12/07 02:07:15;;;;;;;13.70;6.30;;;;;;;8.19;73.37;97850.47;5396366;26;20056;-82
2022/12/07 02:09:43;;;;;;;15.05;6.32;;;;;;;7.88;75.15;97842.19;5395329;26;20136;-82
2022/12/07 02:12:10;;;;;;;17.00;6.53;;;;;;;7.86;75.96;97849.91;5396180;26;20044;-82
2022/12/07 02:14:37;;;;;;;14.68;6.72;;;;;;;7.68;77.04;97851.41;5396006;26;20028;-82
2022/12/07 02:17:12;;;;;;;16.85;6.55;;;;;;;8.12;74.68;97852.41;5395650;26;20021;-82
2022/12/07 02:19:51;;;;;;;14.80;6.62;;;;;;;7.97;74.94;97852.94;5395911;26;20052;-82
2022/12/07 02:22:45;;;;;;;14.38;6.57;;;;;;;8.58;72.63;97848.16;5375932;26;20097;-82
2022/12/07 02:25:47;;;;;;;15.20;6.53;;;;;;;8.73;71.59;97848.50;5395640;26;20056;-82
2022/12/07 02:28:22;;;;;;;15.55;6.68;;;;;;;7.75;75.45;97837.44;5390447;26;20051;-82
2022/12/07 02:30:50;;;;;;;15.10;6.37;;;;;;;8.34;73.71;97846.50;5394584;26;20741;-82
2022/12/07 02:33:32;;;;;;;15.00;5.87;;;;;;;8.40;74.23;97852.28;5395296;26;20024;-82
2022/12/07 02:36:03;;;;;;;14.55;6.15;;;;;;;8.20;75.39;97843.59;5374749;26;20060;-82
2022/12/07 02:38:38;;;;;;;14.75;6.43;;;;;;;8.01;76.56;97845.97;5394998;26;20024;-82
2022/12/07 02:41:44;;;;;;;13.80;6.37;;;;;;;7.90;77.57;97838.66;5395317;26;20718;-82
2022/12/07 02:44:14;;;;;;;14.10;5.70;;;;;;;7.72;78.94;97836.72;5263115;27;20068;-82
2022/12/07 02:46:44;;;;;;;14.25;5.82;;;;;;;7.81;78.66;97837.25;5281545;27;20045;-82
2022/12/07 02:49:11;;;;;;;13.30;5.70;;;;;;;7.93;78.24;97835.13;5323552;26;20030;-81
2022/12/07 02:51:43;;;;;;;13.23;5.47;;;;;;;8.31;76.15;97838.91;5395739;26;20019;-82
2022/12/07 02:54:19;;;;;;;13.50;5.57;;;;;;;8.37;76.12;97844.66;5396583;26;20020;-82
2022/12/07 02:56:53;;;;;;;13.57;5.32;;;;;;;8.84;72.81;97833.47;5396003;26;20398;-82
2022/12/07 02:59:48;;;;;;;13.02;5.30;;;;;;;9.21;71.98;97833.69;5395296;26;20055;-82
2022/12/07 03:02:31;;;;;;;14.02;5.62;;;;;;;8.77;73.45;97826.91;5384975;26;20048;-82
2022/12/07 03:05:13;;;;;;;11.80;5.12;;;;;;;8.23;76.52;97828.87;5395237;26;20130;-82
2022/12/07 03:07:51;;;;;;;12.18;5.37;;;;;;;8.34;76.69;97829.37;5395742;26;20060;-82
2022/12/07 03:10:36;;;;;;;13.35;5.37;;;;;;;8.10;77.89;97827.66;5395434;26;20690;-82
2022/12/07 03:13:15;;;;;;;12.32;5.30;;;;;;;8.25;76.62;97819.38;5375080;26;20055;-82
2022/12/07 03:15:51;;;;;;;11.52;5.20;;;;;;;8.47;75.96;97826.31;5375779;26;20028;-82
2022/12/07 03:18:21;;;;;;;14.45;5.50;;;;;;;7.94;78.02;97822.22;5396084;26;20071;-82
2022/12/07 03:20:50;;;;;;;13.20;5.37;;;;;;;8.39;76.07;97817.16;5375031;26;20067;-82
2022/12/07 03:23:18;;;;;;;11.07;4.70;;;;;;;8.52;75.88;97819.28;5375905;26;20366;-82
2022/12/07 03:25:50;;;;;;;12.75;5.18;;;;;;;8.44;74.82;97811.03;5375880;26;20039;-82
2022/12/07 03:28:28;;;;;;;11.68;4.93;;;;;;;8.97;72.40;97816.66;5377832;26;20117;-82
2022/12/07 03:31:26;;;;;;;15.02;6.10;;;;;;;9.02;71.39;97811.31;5396319;26;20060;-82
2022/12/07 03:34:05;;;;;;;12.65;5.20;;;;;;;8.82;71.93;97809.53;5372908;26;20055;-82
2022/12/07 03:36:37;;;;;;;13.23;5.50;;;;;;;9.06;70.22;97813.72;5396250;26;20020;-82
2022/12/07 03:39:24;;;;;;;14.55;6.25;;;;;;;9.26;69.49;97820.63;5375585;26;20059;-82
2022/12/07 03:41:52;;;;;;;12.82;5.50;;;;;;;9.13;69.40;97824.59;5375682;26;20063;-82
2022/12/07 03:44:20;;;;;;;15.02;6.40;;;;;;;9.18;68.81;97818.38;5395945;26;20059;-82
2022/12/07 03:46:49;;;;;;;12.88;6.18;;;;;;;9.19;68.44;97824.34;5396311;26;20050;-82
2022/12/07 03:49:24;;;;;;;12.63;6.07;;;;;;;9.34;67.41;97821.13;5396185;26;20028;-82
2022/12/07 03:52:00;;;;;;;14.45;6.12;;;;;;;9.14;67.95;97821.09;5396778;26;20331;-82
2022/12/07 03:54:32;;;;;;;13.35;5.87;;;;;;;9.10;68.70;97819.56;5396298;26;20048;-82
2022/12/07 03:57:00;;;;;;;14.07;6.47;;;;;;;9.13;69.10;97817.69;5376627;26;20386;-82
2022/12/07 03:59:28;;;;;;;15.40;6.53;;;;;;;9.59;66.39;97828.69;5376606;26;20031;-82
2022/12/07 04:01:57;;;;;;;14.48;6.60;;;;;;;9.84;65.03;97828.47;5376673;26;20402;-82
2022/12/07 04:04:24;;;;;;;14.93;6.65;;;;;;;9.78;64.79;97827.00;5376773;26;20079;-82
2022/12/07 04:06:51;;;;;;;14.25;6.22;;;;;;;9.56;65.82;97829.63;5397068;26;20023;-82
2022/12/07 04:09:18;;;;;;;16.17;6.85;;;;;;;9.78;64.94;97828.72;5396492;26;20065;-82
2022/12/07 04:11:45;;;;;;;20.00;8.35;;;;;;;9.67;65.26;97836.91;5396959;26;20020;-82
2022/12/07 04:14:18;;;;;;;17.77;8.05;;;;;;;9.89;63.72;97842.00;5396348;26;20394;-82
2022/12/07 04:16:52;;;;;;;16.58;7.32;;;;;;;9.50;65.71;97837.63;5395899;26;20020;-82
2022/12/07 04:19:21;;;;;;;18.08;7.97;;;;;;;9.15;67.45;97839.09;5376436;26;20117;-82
2022/12/07 04:21:48;;;;;;;16.45;6.47;;;;;;;9.22;66.96;97837.09;5376775;26;20105;-83
2022/12/07 04:24:15;;;;;;;15.20;6.95;;;;;;;8.74;69.44;97843.28;5396291;26;20021;-82
2022/12/07 04:26:43;;;;;;;14.27;6.62;;;;;;;8.94;68.38;97843.34;5396873;26;20164;-82
2022/12/07 04:29:10;;;;;;;14.32;6.30;;;;;;;8.38;69.85;97841.19;5396231;26;20121;-82
2022/12/07 04:31:37;;;;;;;14.48;6.57;;;;;;;8.10;71.71;97843.09;5396398;26;20024;-82
2022/12/07 04:34:04;;;;;;;14.43;6.15;;;;;;;8.30;72.26;97837.22;5396057;26;20055;-82
2022/12/07 04:36:32;;;;;;;14.93;6.78;;;;;;;8.10;72.98;97833.66;5395793;26;20065;-82
2022/12/07 04:39:00;;;;;;;14.65;6.68;;;;;;;8.15;73.23;97835.19;5397157;26;20024;-82
2022/12/07 04:41:27;;;;;;;14.98;6.43;;;;;;;8.21;73.47;97837.56;5396592;26;20059;-82
2022/12/07 04:43:59;;;;;;;13.62;6.32;;;;;;;7.74;74.66;97837.50;5395812;26;20052;-82
2022/12/07 04:46:26;;;;;;;13.23;6.15;;;;;;;8.12;74.08;97846.44;5395646;26;20019;-82
2022/12/07 04:48:54;;;;;;;13.88;6.57;;;;;;;8.38;72.47;97837.78;5395614;26;20063;-82
2022/12/07 04:51:26;;;;;;;18.20;6.47;;;;;;;8.16;73.88;97842.84;5395399;26;20070;-82
2022/12/07 04:53:54;;;;;;;13.85;5.90;;;;;;;8.25;73.59;97845.09;5395372;26;20405;-82
2022/12/07 04:56:21;;;;;;;14.27;5.90;;;;;;;8.41;72.67;97837.69;5396050;26;20043;-82
2022/12/07 04:58:49;;;;;;;15.00;6.93;;;;;;;8.02;74.07;97843.34;5395130;26;20435;-82
2022/12/07 05:01:17;;;;;;;12.77;5.72;;;;;;;8.58;72.36;97848.16;5395716;26;20085;-82
2022/12/07 05:03:44;;;;;;;14.87;6.10;;;;;;;8.90;70.46;97848.66;5395330;26;20062;-82
2022/12/07 05:06:11;;;;;;;14.35;5.95;;;;;;;8.83;70.02;97849.81;5374741;26;20054;-82
2022/12/07 05:08:40;;;;;;;13.05;5.65;;;;;;;9.08;69.04;97840.22;5374964;26;20081;-82
2022/12/07 05:11:07;;;;;;;13.05;5.75;;;;;;;9.11;69.43;97841.84;5395243;26;20056;-82
2022/12/07 05:13:35;;;;;;;14.45;6.07;;;;;;;9.26;68.44;97854.09;5395301;26;20097;-82
2022/12/07 05:16:02;;;;;;;16.25;6.30;;;;;;;8.92;69.66;97852.00;5395737;26;20096;-82
2022/12/07 05:18:29;;;;;;;13.88;6.12;;;;;;;9.39;68.15;97854.44;5395516;26;20024;-82
2022/12/07 05:20:56;;;;;;;;;;;;;;;7.48;76.06;97851.25;5396199;26;20109;-82
2022/12/07 05:23:23;;;;;;;15.43;6.43;;;;;;;7.58;74.99;97855.19;5396262;26;19970;-82
2022/12/07 05:25:50;;;;;;;15.00;6.70;;;;;;;8.91;70.00;97853.75;5395521;26;20495;-83
2022/12/07 05:28:17;;;;;;;14.90;6.68;;;;;;;9.00;68.99;97849.97;5396166;26;20070;-83
2022/12/07 05:30:44;;;;;;;13.93;5.90;;;;;;;10.09;65.05;97849.69;5395480;26;20054;-82
2022/12/07 05:33:11;;;;;;;16.37;6.68;;;;;;;10.36;63.13;97854.56;5395248;26;20048;-82
2022/12/07 05:35:38;;;;;;;12.43;5.95;;;;;;;10.39;62.31;97846.69;5395494;26;20054;-82
2022/12/07 05:38:05;;;;;;;13.60;6.12;;;;;;;9.95;63.12;97844.31;5395566;26;20056;-82
2022/12/07 05:40:32;;;;;;;13.05;5.75;;;;;;;9.68;64.54;97848.91;5394654;26;20028;-82
2022/12/07 05:42:59;;;;;;;;;;;;;;;9.56;65.32;97842.50;5396053;26;20052;-82
2022/12/07 05:45:30;;;;;;;13.57;5.70;;;;;;;9.60;66.05;97842.41;5396043;26;20000;-82
2022/12/07 05:47:57;;;;;;;14.68;5.93;;;;;;;9.32;67.95;97850.44;5394843;26;20031;-82
2022/12/07 05:50:24;;;;;;;14.35;5.95;;;;;;;9.37;68.04;97848.53;5395747;26;20059;-82
2022/12/07 05:52:51;;;;;;;15.05;6.55;;;;;;;9.39;68.20;97850.13;5375280;26;20055;-82
2022/12/07 05:55:18;;;;;;;;;;;;;;;8.90;70.83;97849.50;5395253;26;20041;-82
2022/12/07 05:59:22;;;;;;;15.55;6.93;;;;;;;9.19;70.37;97856.06;5395748;26;19973;-82
2022/12/07 06:00:32;;;;;;;14.57;6.07;;;;;;;9.68;68.04;97856.66;5394954;26;20059;-82
2022/12/07 06:02:59;;;;;;;15.00;6.40;;;;;;;9.29;69.16;97856.53;5395355;26;20062;-82
2022/12/07 06:05:26;;;;;;;13.98;6.30;;;;;;;9.86;67.56;97857.59;5395054;26;20386;-82
2022/12/07 06:07:53;;;;;;;;;;;;;;;10.22;65.80;97859.53;5395112;26;20052;-82
2022/12/07 06:10:20;;;;;;;15.43;6.18;;;;;;;9.95;66.62;97856.34;5394974;26;19970;-82
2022/12/07 06:12:47;;;;;;;15.38;6.50;;;;;;;10.69;62.73;97859.94;5395116;26;20056;-82
2022/12/07 06:15:14;;;;;;;15.75;6.72;;;;;;;10.62;62.72;97854.22;5395952;26;20048;-82
2022/12/07 06:17:41;;;;;;;15.65;6.75;;;;;;;10.47;62.57;97859.25;5396582;26;20024;-82
2022/12/07 06:20:09;;;;;;;14.73;6.25;;;;;;;10.42;63.15;97862.88;5396105;26;20109;-82
2022/12/07 06:22:36;;;;;;;15.05;6.25;;;;;;;10.52;62.42;97865.84;5375347;26;20051;-82
2022/12/07 06:25:03;;;;;;;14.80;6.20;;;;;;;10.35;63.29;97864.06;5376157;26;20096;-82
2022/12/07 06:27:35;;;;;;;14.95;6.18;;;;;;;10.25;63.94;97865.38;5396222;26;20070;-82
2022/12/07 06:30:06;;;;;;;14.80;6.47;;;;;;;10.05;64.48;97861.06;5395653;26;20183;-82
2022/12/07 06:32:33;;;;;;;15.32;6.25;;;;;;;9.73;66.91;97871.91;5394082;26;20048;-82
2022/12/07 06:35:00;;;;;;;16.33;6.85;;;;;;;10.28;64.38;97861.81;5375297;26;20044;-82
2022/12/07 06:37:27;;;;;;;15.55;6.70;;;;;;;10.11;64.99;97862.53;5395329;26;20390;-83
2022/12/07 06:39:54;;;;;;;16.90;7.40;;;;;;;10.58;62.85;97869.91;5395753;26;20116;-83
2022/12/07 06:42:21;;;;;;;14.95;6.45;;;;;;;10.46;63.76;97866.16;5394989;26;20089;-81
2022/12/07 06:44:48;;;;;;;16.27;7.15;;;;;;;10.43;63.83;97861.97;5394230;26;20039;-82
2022/12/07 06:47:15;;;;;;;17.27;7.50;;;;;;;9.87;66.99;97859.25;5392278;26;20063;-80
2022/12/07 06:50:03;;;;;;;18.00;7.70;;;;;;;10.07;65.96;97855.81;5391049;26;20059;-80
2022/12/07 06:52:30;;;;;;;18.62;7.55;;;;;;;10.26;65.91;97863.62;5391331;26;21959;-80
2022/12/07 06:54:58;;;;;;;14.68;6.43;;;;;;;10.97;62.91;97864.66;5391172;26;20045;-80
2022/12/07 06:57:26;;;;;;;17.20;7.43;;;;;;;10.15;64.62;97869.22;5390806;26;20420;-80
2022/12/07 06:59:52;;;;;;;19.30;8.45;;;;;;;9.91;67.51;97870.28;5391222;26;20639;-80
2022/12/07 07:02:19;;;;;;;17.55;7.30;;;;;;;9.80;67.43;97871.59;5391173;26;20048;-80
2022/12/07 07:04:46;;;;;;;16.98;7.32;;;;;;;8.90;70.60;97879.53;5390603;26;20043;-78
2022/12/07 07:07:13;;;;;;;;;;;;;;;9.05;71.09;97878.97;5391514;26;20056;-78
2022/12/07 07:09:41;;;;;;;18.08;7.57;;;;;;;9.19;69.20;97881.81;5391087;26;20338;-79
2022/12/07 07:12:08;;;;;;;17.48;7.97;;;;;;;9.81;67.80;97880.97;5393641;26;20103;-81
2022/12/07 07:14:35;;;;;;;19.17;7.85;;;;;;;9.86;66.30;97881.63;5393180;26;20631;-80
2022/12/07 07:17:02;;;;;;;16.95;7.72;;;;;;;10.30;65.86;97875.47;5396096;26;20056;-81
2022/12/07 07:23:10;;;;;;;17.95;8.10;;;;;;;10.25;64.50;97880.84;5392436;26;20771;-81
2022/12/07 07:25:37;;;;;;;17.60;7.90;;;;;;;10.75;63.13;97890.63;5391656;26;20043;-80
2022/12/07 07:28:04;;;;;;;18.58;7.53;;;;;;;11.41;60.30;97896.09;5371594;26;20074;-80
2022/12/07 07:30:31;;;;;;;16.00;6.87;;;;;;;11.41;59.30;97885.78;5393301;26;20743;-80
2022/12/07 07:33:00;;;;;;;18.00;8.07;;;;;;;11.38;59.82;97878.19;5395464;26;20066;-80
2022/12/07 07:35:28;;;;;;;17.00;7.43;;;;;;;10.70;61.88;97883.09;5393461;26;20048;-80
2022/12/07 07:37:55;;;;;;;16.85;7.07;;;;;;;10.92;60.83;97884.69;5392516;26;20056;-81
2022/12/07 07:40:23;;;;;;;14.85;6.75;;;;;;;10.68;61.22;97890.06;5371136;26;20064;-81
2022/12/07 07:42:51;;;;;;;14.93;6.43;;;;;;;10.96;60.42;97891.38;5391123;26;20071;-81
2022/12/07 07:45:19;;;;;;;17.87;7.55;;;;;;;10.01;63.68;97887.88;5371443;26;20093;-80
2022/12/07 07:47:46;;;;;;;17.83;7.53;;;;;;;10.10;64.18;97877.16;5391064;26;20406;-81
2022/12/07 07:50:13;;;;;;;16.65;7.37;;;;;;;9.96;65.03;97894.12;5391613;26;20117;-81
2022/12/07 07:52:40;;;;;;;16.23;6.75;;;;;;;10.38;63.99;97894.03;5391334;26;20062;-81
2022/12/07 07:55:10;;;;;;;16.05;6.68;;;;;;;10.10;65.16;97897.78;5391896;26;20045;-81
2022/12/07 07:57:38;;;;;;;16.77;6.93;;;;;;;11.17;61.21;97898.13;5392050;26;20063;-79
2022/12/07 08:00:08;;;;;;;14.75;6.40;;;;;;;11.11;61.74;97892.41;5371247;26;20421;-80
2022/12/07 08:02:35;;;;;;;16.02;6.50;;;;;;;10.60;64.06;97897.31;5371785;26;20067;-79
2022/12/07 08:05:02;;;;;;;18.12;7.93;;;;;;;11.06;63.27;97895.22;5391818;26;20056;-80
2022/12/07 08:07:29;;;;;;;17.80;7.65;;;;;;;10.71;64.46;97907.16;5391425;26;20052;-80
2022/12/07 08:09:56;;;;;;;15.70;6.62;;;;;;;11.43;63.10;97901.19;5391580;26;20074;-80
2022/12/07 08:12:23;;;;;;;15.60;7.07;;;;;;;11.51;62.70;97905.09;5392979;26;20052;-80
2022/12/07 08:14:50;;;;;;;15.55;6.47;;;;;;;11.88;61.15;97903.28;5391611;26;20043;-80
2022/12/07 08:17:17;;;;;;;14.90;6.47;;;;;;;11.87;62.43;97909.38;5391917;26;20390;-80
2022/12/07 08:19:44;;;;;;;17.08;7.15;;;;;;;12.00;61.39;97894.06;5391586;26;20059;-81
2022/12/07 08:22:11;;;;;;;15.65;7.47;;;;;;;12.08;61.94;97902.28;5391552;26;20051;-81
2022/12/07 08:24:38;;;;;;;16.10;7.37;;;;;;;12.11;61.27;97899.53;5372236;26;20143;-81
2022/12/07 08:27:05;;;;;;;15.25;7.05;;;;;;;12.38;59.60;97899.88;5391682;26;20051;-81
2022/12/07 08:29:32;;;;;;;16.73;7.10;;;;;;;12.61;58.34;97903.81;5391212;26;20055;-81
2022/12/07 08:32:00;;;;;;;15.80;7.20;;;;;;;12.47;59.10;97901.97;5391677;26;20109;-80
2022/12/07 08:34:35;;;;;;;14.95;6.55;;;;;;;12.56;58.42;97898.91;5391886;26;20099;-80
2022/12/07 08:37:02;;;;;;;16.27;7.00;;;;;;;12.71;58.82;97907.59;5371838;26;20126;-80
2022/12/07 08:39:29;;;;;;;15.95;6.78;;;;;;;12.83;57.21;97906.94;5391551;26;20064;-81
2022/12/07 08:41:58;;;;;;;16.05;6.62;;;;;;;12.97;57.02;97903.59;5391181;26;20083;-81
2022/12/07 08:44:25;;;;;;;14.77;7.03;;;;;;;13.09;56.76;97912.47;5391920;26;20040;-81
2022/12/07 08:46:56;;;;;;;17.62;7.60;;;;;;;13.09;57.16;97915.06;5391322;26;20059;-81
2022/12/07 08:49:31;;;;;;;17.98;7.53;;;;;;;12.95;57.58;97911.44;5371133;26;20071;-81
2022/12/07 08:51:57;;;;;;;15.57;6.53;;;;;;;13.26;57.02;97915.81;5391771;26;20521;-81
2022/12/07 08:54:24;;;;;;;15.98;7.40;;;;;;;13.06;56.59;97907.44;5391157;26;20066;-81
2022/12/07 08:56:52;;;;;;;16.02;6.95;;;;;;;12.76;58.28;97913.37;5391087;26;20055;-81
2022/12/07 08:59:25;;;;;;;15.45;6.93;;;;;;;13.31;56.62;97921.59;5372352;26;20090;-81
2022/12/07 09:01:52;;;;;;;13.48;5.80;;;;;;;13.19;57.76;97918.84;5371581;26;20051;-81
2022/12/07 09:04:20;;;;;;;13.43;6.15;;;;;;;13.33;56.63;97921.50;5392316;26;20091;-83
2022/12/07 09:06:47;;;;;;;14.82;7.05;;;;;;;13.89;54.66;97914.84;5392833;26;20338;-83
2022/12/07 09:09:14;;;;;;;15.18;5.72;;;;;;;14.11;53.24;97917.00;5391447;26;20106;-83
2022/12/07 09:11:41;;;;;;;12.82;5.97;;;;;;;13.72;54.31;97913.22;5391056;26;20056;-83
2022/12/07 09:14:08;;;;;;;13.15;5.57;;;;;;;13.50;55.63;97923.97;5391305;26;20043;-83
2022/12/07 09:16:35;;;;;;;11.93;5.40;;;;;;;13.87;53.45;97914.94;5391455;26;20052;-83
2022/12/07 09:19:02;;;;;;;11.48;4.70;;;;;;;13.70;53.33;97907.28;5391322;26;20055;-82
2022/12/07 09:21:29;;;;;;;11.55;4.85;;;;;;;14.09;51.59;97916.25;5391543;26;20176;-82
2022/12/07 09:23:56;;;;;;;12.90;5.55;;;;;;;14.31;49.73;97911.47;5403066;26;20024;-79
2022/12/07 09:26:23;;;;;;;12.43;5.37;;;;;;;14.15;50.06;97910.72;5394573;26;20074;-78
2022/12/07 09:28:51;;;;;;;13.48;5.62;;;;;;;14.71;47.86;97914.28;5394919;26;20073;-80
2022/12/07 09:31:18;;;;;;;12.75;4.80;;;;;;;14.31;49.09;97908.88;5394434;26;20104;-79
2022/12/07 09:33:58;;;;;;;10.57;4.72;;;;;;;14.92;46.99;97905.16;5392838;26;20044;-79
2022/12/07 09:36:25;;;;;;;11.15;4.70;;;;;;;14.84;46.48;97909.16;5393998;26;20065;-79
2022/12/07 09:38:52;;;;;;;10.82;4.65;;;;;;;14.45;47.69;97901.09;5391210;26;20070;-79
2022/12/07 09:41:20;;;;;;;14.05;5.55;;;;;;;15.25;46.17;97906.56;5391318;26;20566;-80
2022/12/07 09:43:47;;;;;;;11.20;4.57;;;;;;;15.58;44.80;97906.16;5371362;26;20051;-80
2022/12/07 09:46:15;;;;;;;11.10;4.65;;;;;;;15.07;46.41;97899.91;5391502;26;20056;-80
2022/12/07 09:48:43;;;;;;;10.88;5.00;;;;;;;14.32;47.91;97899.31;5391059;26;20111;-80
2022/12/07 09:51:21;;;;;;;11.00;4.85;;;;;;;14.26;47.27;97892.75;5371402;26;20048;-79
2022/12/07 09:53:55;;;;;;;11.75;4.53;;;;;;;14.57;46.84;97889.16;5372377;26;20068;-80
2022/12/07 09:56:23;;;;;;;10.02;4.32;;;;;;;13.54;49.79;97893.53;5371181;26;20070;-80
2022/12/07 09:58:53;;;;;;;12.65;5.30;;;;;;;14.99;46.42;97895.19;5370858;26;20124;-79
2022/12/07 10:01:21;;;;;;;12.00;4.70;;;;;;;15.40;45.28;97897.75;5391562;26;20044;-79
2022/12/07 10:03:58;;;;;;;11.02;4.30;;;;;;;15.26;44.85;97890.84;5392260;26;20081;-80
2022/12/07 10:06:25;;;;;;;10.07;4.53;;;;;;;15.43;44.63;97897.59;5371110;26;20131;-79
2022/12/07 10:08:52;;;;;;;11.48;4.62;;;;;;;15.89;42.39;97892.81;5391277;26;20108;-79
2022/12/07 10:11:19;;;;;;;10.63;4.00;;;;;;;15.25;44.37;97894.41;5391497;26;20523;-79
2022/12/07 10:13:49;;;;;;;10.32;4.07;;;;;;;14.89;45.35;97888.94;5390871;26;20047;-79
2022/12/07 10:16:24;;;;;;;12.05;4.50;;;;;;;15.64;43.36;97890.19;5391261;26;20538;-79
2022/12/07 10:18:52;;;;;;;9.82;3.87;;;;;;;14.99;45.43;97890.00;5391571;26;20444;-79
2022/12/07 10:21:23;;;;;;;10.80;4.10;;;;;;;14.55;45.98;97877.19;5390849;26;20020;-79
2022/12/07 10:24:16;;;;;;;9.38;4.00;;;;;;;14.76;45.63;97879.28;5391430;26;20044;-79
2022/12/07 10:26:46;;;;;;;9.20;4.00;;;;;;;14.57;45.91;97872.72;5372077;26;20418;-79
2022/12/07 10:29:38;;;;;;;9.65;3.70;;;;;;;15.70;42.85;97876.75;5391071;26;20063;-79
2022/12/07 10:32:34;;;;;;;9.52;3.92;;;;;;;15.10;44.29;97872.00;5391229;26;20059;-79
2022/12/07 10:35:27;;;;;;;10.30;4.10;;;;;;;16.15;41.98;97872.84;5390879;26;20040;-79
2022/12/07 10:37:57;;;;;;;9.32;4.20;;;;;;;15.40;43.21;97876.97;5391267;26;20059;-79
2022/12/07 10:40:28;;;;;;;9.25;3.92;;;;;;;14.93;45.06;97877.41;5371190;26;20070;-79
2022/12/07 10:43:12;;;;;;;10.10;4.43;;;;;;;15.71;43.51;97881.03;5390880;26;20055;-79
2022/12/07 10:45:48;;;;;;;9.38;4.55;;;;;;;15.50;43.54;97869.41;5391614;26;20054;-79
2022/12/07 10:48:54;;;;;;;10.25;4.30;;;;;;;15.80;42.74;97870.00;5391839;26;20070;-80
2022/12/07 10:51:32;;;;;;;8.60;3.90;;;;;;;15.47;43.14;97867.84;5391957;26;20436;-80
2022/12/07 10:54:19;;;;;;;9.93;4.30;;;;;;;16.37;40.96;97871.38;5374849;26;20111;-81
2022/12/07 10:56:58;;;;;;;11.32;4.20;;;;;;;16.30;40.84;97868.38;5392910;26;20048;-79
2022/12/07 10:59:59;;;;;;;11.20;4.43;;;;;;;15.74;41.96;97857.44;5371940;26;20071;-80
2022/12/07 11:02:38;;;;;;;10.98;4.22;;;;;;;15.66;41.87;97861.47;5373022;26;20067;-80
2022/12/07 11:05:15;;;;;;;11.85;4.40;;;;;;;15.23;42.74;97862.47;5393799;26;20048;-80
2022/12/07 11:08:20;;;;;;;9.98;3.45;;;;;;;14.19;44.66;97865.50;5376785;26;20048;-80
2022/12/07 11:10:55;;;;;;;8.52;3.40;;;;;;;13.77;44.57;97864.53;5373682;26;20119;-80
2022/12/07 11:13:29;;;;;;;7.70;3.15;;;;;;;13.55;45.10;97862.34;5382365;26;20028;-79
2022/12/07 11:16:32;;;;;;;7.20;2.75;;;;;;;13.63;45.18;97858.47;5378290;26;20053;-79
2022/12/07 11:19:28;;;;;;;7.25;2.78;;;;;;;12.83;45.64;97865.50;5400227;26;20024;-79
2022/12/07 11:22:04;;;;;;;7.85;2.58;;;;;;;12.97;46.42;97860.44;5396847;26;20600;-79
2022/12/07 11:25:14;;;;;;;7.72;2.80;;;;;;;12.48;46.95;97861.41;5395889;26;20104;-79
2022/12/07 11:27:52;;;;;;;7.20;2.62;;;;;;;11.75;49.21;97853.94;5267550;27;20425;-80
2022/12/07 11:30:28;;;;;;;8.75;2.78;;;;;;;11.88;49.09;97854.16;5286852;27;20057;-80
2022/12/07 11:33:01;;;;;;;7.35;2.60;;;;;;;11.54;49.05;97850.66;5340645;26;20028;-79
2022/12/07 11:35:36;;;;;;;6.97;2.62;;;;;;;11.38;49.19;97852.34;5383064;26;20043;-80
2022/12/07 11:38:12;;;;;;;8.52;2.72;;;;;;;10.83;52.56;97848.97;5399437;26;20116;-79
2022/12/07 11:40:40;;;;;;;7.72;2.85;;;;;;;11.26;51.04;97850.34;5398050;26;20048;-79
2022/12/07 11:43:26;;;;;;;7.87;2.70;;;;;;;12.20;47.71;97842.16;5391369;26;20373;-79
2022/12/07 11:46:04;;;;;;;7.05;2.60;;;;;;;11.74;48.17;97831.56;5391548;26;20059;-79
2022/12/07 11:48:36;;;;;;;7.40;2.78;;;;;;;11.47;49.91;97827.78;5392297;26;20100;-79
2022/12/07 11:51:04;;;;;;;6.43;2.35;;;;;;;11.55;49.58;97823.91;5392953;26;20048;-79
2022/12/07 11:54:17;;;;;;;6.60;2.50;;;;;;;11.75;47.87;97816.91;5393285;26;20124;-79
2022/12/07 11:56:45;;;;;;;7.72;2.70;;;;;;;11.01;51.69;97820.53;5321478;26;20055;-80